Time;durP1;ratioP1;P1;durP2;ratioP2;P2;SDS_P1;SDS_P2;PMS_P1;PMS_P2;Temp;Humidity;BMP_temperature;BMP_pressure;BME280_temperature;BME280_humidity;BME280_pressure;Samples;Min_cycle;Max_cycle;Signal;HPM_P1;HPM_P2
2021/08/13 00:00:06;;;;;;;2.60;2.30;;;21.20;66.70;;;;;;5053384;28;20112;-77
2021/08/13 00:02:32;;;;;;;3.20;2.40;;;21.20;66.70;;;;;;5048664;28;20017;-78
2021/08/13 00:04:58;;;;;;;2.55;2.10;;;21.20;66.70;;;;;;5042809;28;20041;-78
2021/08/13 00:07:23;;;;;;;2.25;2.05;;;21.20;66.70;;;;;;5044057;28;20037;-78
2021/08/13 00:09:49;;;;;;;3.10;2.05;;;21.20;66.70;;;;;;5047010;28;20029;-78
2021/08/13 00:12:14;;;;;;;3.30;2.17;;;21.20;66.80;;;;;;5050445;28;20028;-78
2021/08/13 00:14:40;;;;;;;3.72;2.25;;;21.10;67.10;;;;;;5047834;28;20060;-77
2021/08/13 00:17:05;;;;;;;2.88;2.45;;;21.10;67.30;;;;;;5047632;28;20021;-77
2021/08/13 00:19:31;;;;;;;2.55;2.10;;;21.00;67.50;;;;;;5040820;28;20029;-77
2021/08/13 00:21:56;;;;;;;2.30;2.10;;;21.00;67.60;;;;;;5039519;28;20017;-77
2021/08/13 00:24:22;;;;;;;2.90;1.98;;;21.00;67.60;;;;;;5051644;28;20118;-76
2021/08/13 00:26:47;;;;;;;3.22;2.25;;;21.00;67.60;;;;;;5043650;28;20049;-76
2021/08/13 00:29:13;;;;;;;2.30;2.10;;;21.00;67.80;;;;;;5053273;28;20119;-76
2021/08/13 00:31:38;;;;;;;4.72;2.13;;;21.00;67.90;;;;;;5052347;28;20496;-76
2021/08/13 00:34:04;;;;;;;2.58;2.15;;;21.00;67.80;;;;;;5046015;28;20041;-76
2021/08/13 00:36:29;;;;;;;3.45;1.80;;;21.00;67.80;;;;;;5042691;28;20033;-76
2021/08/13 00:38:55;;;;;;;2.80;2.10;;;20.90;67.90;;;;;;5048804;28;20136;-77
2021/08/13 00:41:21;;;;;;;2.85;2.10;;;20.90;68.00;;;;;;5043788;28;20060;-77
2021/08/13 00:43:47;;;;;;;2.30;2.10;;;20.90;68.00;;;;;;5047435;28;20112;-77
2021/08/13 00:46:13;;;;;;;3.28;2.05;;;20.90;68.00;;;;;;5051942;28;21000;-77
2021/08/13 00:48:38;;;;;;;3.35;2.40;;;20.80;68.00;;;;;;5045313;28;20028;-77
2021/08/13 00:51:04;;;;;;;2.90;2.08;;;20.80;68.00;;;;;;5050057;28;20395;-77
2021/08/13 00:53:30;;;;;;;2.53;2.03;;;20.70;68.10;;;;;;5050829;28;20032;-77
2021/08/13 00:55:56;;;;;;;2.10;1.80;;;20.70;68.30;;;;;;5050131;28;20067;-77
2021/08/13 00:58:22;;;;;;;3.45;2.05;;;20.70;68.60;;;;;;5044571;28;20025;-77
2021/08/13 01:00:51;;;;;;;2.42;2.20;;;20.60;68.70;;;;;;5047077;28;20047;-77
2021/08/13 01:03:16;;;;;;;4.50;2.47;;;20.60;68.70;;;;;;5059937;28;20082;-77
2021/08/13 01:05:42;;;;;;;2.83;2.15;;;20.60;68.70;;;;;;5049505;28;20555;-77
2021/08/13 01:08:07;;;;;;;2.47;2.00;;;20.50;68.80;;;;;;5047133;28;20068;-77
2021/08/13 01:10:41;;;;;;;3.17;2.33;;;20.50;69.70;;;;;;5052867;28;20021;-77
2021/08/13 01:13:16;;;;;;;2.35;2.03;;;20.50;69.10;;;;;;5049570;28;20029;-76
2021/08/13 01:16:00;;;;;;;2.65;2.17;;;20.50;69.10;;;;;;5061642;28;20127;-75
2021/08/13 01:18:37;;;;;;;4.47;2.30;;;20.50;69.10;;;;;;5047912;28;20017;-77
2021/08/13 01:21:08;;;;;;;3.08;2.25;;;20.40;69.00;;;;;;5050596;28;20031;-77
2021/08/13 01:23:39;;;;;;;3.20;2.43;;;20.40;69.00;;;;;;5045534;28;20100;-77
2021/08/13 01:26:06;;;;;;;2.42;2.20;;;20.40;68.90;;;;;;5046732;28;20037;-77
2021/08/13 01:28:37;;;;;;;2.35;2.05;;;20.40;69.00;;;;;;5048584;28;20053;-77
2021/08/13 01:31:11;;;;;;;3.92;2.35;;;20.40;69.20;;;;;;5049272;28;20103;-75
2021/08/13 01:33:39;;;;;;;2.38;2.17;;;20.40;69.10;;;;;;5045926;28;20029;-75
2021/08/13 01:36:06;;;;;;;2.85;2.42;;;20.40;69.10;;;;;;5049261;28;20047;-75
2021/08/13 01:38:34;;;;;;;2.78;2.33;;;20.50;69.20;;;;;;5048030;28;20024;-75
2021/08/13 01:41:03;;;;;;;2.63;2.30;;;20.40;69.20;;;;;;5049470;28;20050;-75
2021/08/13 01:43:31;;;;;;;3.45;2.40;;;20.40;69.30;;;;;;5044916;28;20035;-76
2021/08/13 01:45:58;;;;;;;2.70;2.30;;;20.50;69.30;;;;;;5049502;28;20471;-75
2021/08/13 01:48:26;;;;;;;3.45;2.40;;;20.40;69.30;;;;;;5044726;28;20032;-77
2021/08/13 01:50:52;;;;;;;3.30;2.15;;;20.40;69.50;;;;;;5050128;28;20032;-77
2021/08/13 01:53:19;;;;;;;2.25;2.00;;;20.40;69.50;;;;;;5049600;28;20032;-76
2021/08/13 01:55:45;;;;;;;2.40;2.17;;;20.40;69.80;;;;;;5050900;28;20061;-76
2021/08/13 01:58:11;;;;;;;2.75;2.10;;;20.30;70.00;;;;;;5047356;28;20479;-76
2021/08/13 02:00:37;;;;;;;3.42;2.22;;;20.30;70.10;;;;;;5052005;28;20032;-76
2021/08/13 02:03:05;;;;;;;2.35;2.10;;;20.30;70.10;;;;;;5042808;28;20106;-77
2021/08/13 02:05:34;;;;;;;3.05;2.50;;;20.30;70.10;;;;;;5046722;28;20558;-76
2021/08/13 02:08:03;;;;;;;2.60;2.40;;;20.30;70.00;;;;;;5039449;28;20030;-77
2021/08/13 02:10:30;;;;;;;3.58;2.50;;;20.30;70.00;;;;;;5050305;28;20171;-77
2021/08/13 02:12:55;;;;;;;2.58;2.33;;;20.30;69.90;;;;;;5046792;28;20025;-78
2021/08/13 02:15:22;;;;;;;2.35;2.13;;;20.20;70.10;;;;;;5045619;28;20057;-77
2021/08/13 02:18:03;;;;;;;3.40;2.40;;;20.10;70.50;;;;;;5048252;28;20033;-76
2021/08/13 02:20:30;;;;;;;2.70;2.30;;;20.00;70.70;;;;;;5050885;28;20142;-76
2021/08/13 02:22:57;;;;;;;2.58;2.20;;;20.00;70.70;;;;;;5048083;28;20480;-76
2021/08/13 02:25:23;;;;;;;2.45;2.20;;;20.00;70.70;;;;;;5044026;28;20047;-76
2021/08/13 02:27:49;;;;;;;4.68;2.50;;;20.00;70.70;;;;;;5040468;28;20041;-75
2021/08/13 02:30:14;;;;;;;2.95;2.30;;;20.00;70.70;;;;;;5048988;28;20391;-75
2021/08/13 02:32:40;;;;;;;3.58;2.22;;;20.00;70.70;;;;;;5044783;28;20028;-76
2021/08/13 02:35:07;;;;;;;3.20;2.30;;;20.00;70.70;;;;;;5049240;28;20044;-75
2021/08/13 02:37:48;;;;;;;3.05;2.13;;;20.00;70.70;;;;;;5034479;28;20021;-75
2021/08/13 02:40:16;;;;;;;2.42;2.15;;;20.00;70.70;;;;;;5049487;28;20025;-76
2021/08/13 02:42:51;;;;;;;2.17;1.98;;;19.90;70.80;;;;;;5049361;28;20626;-76
2021/08/13 02:45:21;;;;;;;2.78;2.33;;;19.80;71.00;;;;;;5049446;28;20040;-76
2021/08/13 02:47:47;;;;;;;2.70;2.28;;;19.80;71.10;;;;;;5046953;28;20064;-76
2021/08/13 02:50:15;;;;;;;4.07;2.55;;;19.80;71.10;;;;;;5047463;28;20048;-75
2021/08/13 02:52:54;;;;;;;2.55;2.30;;;19.80;71.10;;;;;;5047652;28;20086;-73
2021/08/13 02:55:22;;;;;;;2.65;2.28;;;19.80;71.20;;;;;;5042725;28;20051;-74
2021/08/13 02:57:52;;;;;;;3.20;2.30;;;19.80;71.10;;;;;;5049490;28;20482;-74
2021/08/13 03:00:19;;;;;;;2.38;2.15;;;19.80;71.20;;;;;;5045841;28;20025;-74
2021/08/13 03:02:47;;;;;;;4.00;2.70;;;19.70;71.30;;;;;;5040683;28;20056;-74
2021/08/13 03:05:16;;;;;;;2.65;2.35;;;19.70;71.40;;;;;;5047058;28;20036;-74
2021/08/13 03:07:42;;;;;;;2.60;2.10;;;19.70;71.40;;;;;;5049187;28;20422;-75
2021/08/13 03:10:09;;;;;;;2.38;2.17;;;19.60;71.40;;;;;;5049411;28;20029;-74
2021/08/13 03:12:37;;;;;;;2.78;2.38;;;19.60;71.50;;;;;;5047515;28;20044;-74
2021/08/13 03:15:03;;;;;;;3.17;2.58;;;19.60;71.60;;;;;;5046368;28;20519;-75
2021/08/13 03:17:30;;;;;;;2.85;2.55;;;19.60;71.70;;;;;;5040981;28;20025;-74
2021/08/13 03:19:55;;;;;;;3.78;2.67;;;19.50;71.70;;;;;;5045252;28;20437;-75
2021/08/13 03:22:21;;;;;;;3.47;2.58;;;19.50;71.80;;;;;;5049941;28;20112;-75
2021/08/13 03:24:48;;;;;;;3.00;2.70;;;19.50;71.80;;;;;;5045169;28;20384;-75
2021/08/13 03:27:17;;;;;;;3.30;2.83;;;19.50;71.80;;;;;;5054045;28;20025;-75
2021/08/13 03:29:43;;;;;;;3.97;2.65;;;19.40;71.80;;;;;;5048090;28;20056;-75
2021/08/13 03:32:09;;;;;;;4.03;3.03;;;19.40;71.80;;;;;;5051780;28;20013;-75
2021/08/13 03:34:35;;;;;;;3.60;2.75;;;19.40;71.80;;;;;;5047085;28;20040;-75
2021/08/13 03:37:01;;;;;;;3.70;2.72;;;19.40;72.40;;;;;;5039046;28;20030;-75
2021/08/13 03:39:27;;;;;;;3.03;2.53;;;19.40;71.90;;;;;;5034283;28;20112;-75
2021/08/13 03:41:52;;;;;;;4.38;3.00;;;19.30;71.80;;;;;;5039945;28;20031;-75
2021/08/13 03:44:18;;;;;;;4.93;2.92;;;19.30;71.80;;;;;;5047619;28;20029;-75
2021/08/13 03:46:43;;;;;;;4.30;3.20;;;19.30;71.80;;;;;;5052815;28;20091;-74
2021/08/13 03:49:09;;;;;;;3.40;2.60;;;19.20;71.90;;;;;;5051704;28;20507;-75
2021/08/13 03:51:35;;;;;;;3.92;3.10;;;19.20;72.00;;;;;;5051426;28;20094;-75
2021/08/13 03:54:01;;;;;;;4.45;3.00;;;19.20;72.10;;;;;;5053975;28;20040;-75
2021/08/13 03:56:26;;;;;;;3.65;2.90;;;19.20;72.20;;;;;;5052822;28;20029;-75
2021/08/13 03:58:52;;;;;;;3.97;3.10;;;19.10;72.30;;;;;;5045657;28;20048;-75
2021/08/13 04:01:17;;;;;;;4.10;2.88;;;19.10;72.40;;;;;;5052817;28;20041;-75
2021/08/13 04:03:43;;;;;;;4.85;3.13;;;19.10;72.40;;;;;;5050092;28;20020;-75
2021/08/13 04:06:09;;;;;;;4.30;3.50;;;19.10;72.50;;;;;;5052251;28;20025;-75
2021/08/13 04:08:34;;;;;;;4.57;3.85;;;19.10;72.50;;;;;;5046681;28;20039;-75
2021/08/13 04:11:00;;;;;;;5.53;4.03;;;19.10;72.70;;;;;;5051413;28;20391;-75
2021/08/13 04:13:25;;;;;;;5.20;3.92;;;19.10;72.90;;;;;;5053200;28;20024;-76
2021/08/13 04:15:51;;;;;;;4.72;4.03;;;19.10;72.90;;;;;;5050674;28;20037;-75
2021/08/13 04:18:17;;;;;;;4.25;3.45;;;19.10;73.10;;;;;;5051460;28;20344;-75
2021/08/13 04:20:42;;;;;;;4.35;3.45;;;19.10;73.00;;;;;;5049784;28;20102;-75
2021/08/13 04:23:08;;;;;;;5.45;3.90;;;19.10;73.00;;;;;;5047702;28;20079;-74
2021/08/13 04:25:33;;;;;;;4.78;3.88;;;19.10;73.00;;;;;;5035372;28;20037;-74
2021/08/13 04:27:59;;;;;;;5.22;4.32;;;19.20;73.10;;;;;;5051655;28;20135;-75
2021/08/13 04:30:25;;;;;;;7.15;4.90;;;19.10;73.10;;;;;;5046100;28;20029;-75
2021/08/13 04:32:50;;;;;;;5.60;4.57;;;19.20;73.20;;;;;;5045888;28;20037;-75
2021/08/13 04:35:16;;;;;;;6.72;4.72;;;19.20;73.20;;;;;;5050165;28;20522;-74
2021/08/13 04:37:42;;;;;;;5.50;4.20;;;19.20;73.30;;;;;;5046564;28;20017;-75
2021/08/13 04:40:08;;;;;;;5.38;4.32;;;19.30;73.20;;;;;;5044810;28;20104;-75
2021/08/13 04:42:34;;;;;;;5.35;4.32;;;19.30;73.20;;;;;;5050323;28;20546;-76
2021/08/13 04:44:59;;;;;;;5.07;3.72;;;19.40;73.10;;;;;;5050081;28;20033;-75
2021/08/13 04:47:25;;;;;;;5.43;3.90;;;19.50;73.00;;;;;;5049033;28;20029;-76
2021/08/13 04:49:50;;;;;;;4.57;3.78;;;19.50;72.90;;;;;;5049659;28;20029;-75
2021/08/13 04:52:18;;;;;;;4.85;3.92;;;19.60;72.90;;;;;;5051406;28;20037;-75
2021/08/13 04:54:48;;;;;;;5.13;3.90;;;19.60;72.90;;;;;;5042649;28;20064;-76
2021/08/13 04:57:14;;;;;;;5.65;4.25;;;19.70;72.80;;;;;;5051397;28;20756;-76
2021/08/13 04:59:40;;;;;;;4.00;3.58;;;19.70;72.80;;;;;;5049507;28;20476;-76
2021/08/13 05:02:06;;;;;;;6.05;5.20;;;19.70;72.80;;;;;;5050822;28;20036;-77
2021/08/13 05:04:31;;;;;;;5.72;4.55;;;19.80;73.00;;;;;;5052567;28;20602;-76
2021/08/13 05:06:57;;;;;;;6.25;4.70;;;19.80;73.00;;;;;;5046902;28;20017;-77
2021/08/13 05:09:22;;;;;;;5.57;4.50;;;19.80;72.90;;;;;;5052347;28;20661;-77
2021/08/13 05:11:48;;;;;;;7.07;5.45;;;19.90;72.80;;;;;;5046241;28;20115;-77
2021/08/13 05:14:13;;;;;;;6.63;5.03;;;20.00;72.90;;;;;;5047289;28;20571;-77
2021/08/13 05:16:39;;;;;;;6.40;5.05;;;20.00;72.80;;;;;;5047803;28;20028;-78
2021/08/13 05:19:04;;;;;;;8.98;5.93;;;20.10;72.80;;;;;;5049885;28;20021;-78
2021/08/13 05:21:35;;;;;;;6.65;5.32;;;20.10;72.70;;;;;;5049465;28;20373;-78
2021/08/13 05:24:00;;;;;;;10.15;6.90;;;20.20;72.60;;;;;;5050841;28;20099;-77
2021/08/13 05:26:26;;;;;;;9.18;7.55;;;20.30;72.50;;;;;;5049058;28;20104;-78
2021/08/13 05:28:51;;;;;;;8.80;6.35;;;20.30;72.50;;;;;;5051550;28;20029;-78
2021/08/13 05:31:17;;;;;;;11.80;7.10;;;20.40;72.40;;;;;;5050249;28;20029;-78
2021/08/13 05:33:42;;;;;;;7.53;5.38;;;20.50;72.40;;;;;;5049892;28;20033;-78
2021/08/13 05:36:08;;;;;;;9.95;7.22;;;20.60;72.20;;;;;;5046081;28;20170;-77
2021/08/13 05:38:33;;;;;;;8.43;6.15;;;20.80;72.00;;;;;;5046995;28;20060;-75
2021/08/13 05:40:59;;;;;;;7.82;6.20;;;20.80;71.50;;;;;;5048986;28;20450;-76
2021/08/13 05:43:24;;;;;;;9.63;7.43;;;20.90;71.40;;;;;;5050834;28;20021;-76
2021/08/13 05:45:50;;;;;;;8.93;6.38;;;21.10;71.00;;;;;;5047713;28;20537;-75
2021/08/13 05:48:15;;;;;;;8.43;6.35;;;21.40;70.20;;;;;;5049451;28;20071;-76
2021/08/13 05:50:41;;;;;;;6.60;5.40;;;21.50;69.70;;;;;;5048487;28;20321;-76
2021/08/13 05:53:06;;;;;;;6.53;5.28;;;21.60;69.40;;;;;;5047628;28;20039;-77
2021/08/13 05:55:32;;;;;;;6.65;5.07;;;21.80;68.80;;;;;;5048082;28;20492;-78
2021/08/13 05:57:57;;;;;;;6.82;4.88;;;21.80;68.20;;;;;;5048801;28;20509;-78
2021/08/13 06:00:23;;;;;;;6.43;4.03;;;21.80;68.20;;;;;;5049055;28;20028;-75
2021/08/13 06:02:53;;;;;;;5.63;4.28;;;21.90;68.30;;;;;;5049651;28;20074;-76
2021/08/13 06:05:19;;;;;;;8.13;5.22;;;21.90;68.10;;;;;;5046001;28;20029;-76
2021/08/13 06:07:44;;;;;;;5.88;4.22;;;21.90;68.00;;;;;;5047107;28;20491;-77
2021/08/13 06:10:10;;;;;;;5.72;4.70;;;22.00;67.70;;;;;;5049635;28;20025;-78
2021/08/13 06:12:36;;;;;;;5.50;3.90;;;22.10;67.30;;;;;;5049288;28;20545;-77
2021/08/13 06:15:03;;;;;;;4.65;3.40;;;22.10;67.20;;;;;;5048564;28;20074;-76
2021/08/13 06:17:29;;;;;;;5.57;3.28;;;22.10;67.20;;;;;;5053673;28;20115;-77
2021/08/13 06:19:54;;;;;;;4.45;3.40;;;22.10;67.20;;;;;;5048976;28;20167;-76
2021/08/13 06:22:20;;;;;;;4.13;2.97;;;22.00;67.00;;;;;;5045916;28;20013;-77
2021/08/13 06:24:45;;;;;;;4.35;3.33;;;22.00;67.10;;;;;;5048298;28;20033;-76
2021/08/13 06:27:11;;;;;;;5.60;3.35;;;22.00;67.10;;;;;;5050090;28;20078;-78
2021/08/13 06:29:37;;;;;;;5.60;3.60;;;21.90;67.00;;;;;;5048711;28;20045;-77
2021/08/13 06:32:03;;;;;;;5.18;3.53;;;21.90;67.00;;;;;;5046270;28;20017;-78
2021/08/13 06:34:28;;;;;;;3.92;2.97;;;21.80;67.20;;;;;;5048094;28;20030;-77
2021/08/13 06:36:54;;;;;;;4.72;2.88;;;21.80;67.30;;;;;;5047289;28;20029;-79
2021/08/13 06:39:20;;;;;;;5.10;2.92;;;21.80;67.30;;;;;;5040328;28;20025;-77
2021/08/13 06:41:46;;;;;;;5.15;3.33;;;21.80;67.30;;;;;;5044681;28;20052;-76
2021/08/13 06:44:14;;;;;;;4.35;3.40;;;21.70;67.40;;;;;;5049085;28;20607;-77
2021/08/13 06:46:40;;;;;;;4.38;3.47;;;21.70;67.60;;;;;;5047529;28;20116;-75
2021/08/13 06:49:05;;;;;;;3.88;2.75;;;21.70;67.60;;;;;;5049208;28;20117;-76
2021/08/13 06:51:31;;;;;;;3.53;2.80;;;21.70;67.50;;;;;;5048553;28;20041;-76
2021/08/13 06:53:56;;;;;;;3.63;2.67;;;21.80;67.50;;;;;;5048969;28;20029;-75
2021/08/13 06:56:22;;;;;;;4.07;3.38;;;21.80;67.30;;;;;;5046861;28;20668;-76
2021/08/13 06:58:49;;;;;;;5.20;3.30;;;21.80;67.60;;;;;;5046766;28;20033;-76
2021/08/13 07:01:14;;;;;;;3.08;2.40;;;21.80;67.20;;;;;;5047416;28;20494;-76
2021/08/13 07:03:40;;;;;;;3.63;2.67;;;21.90;67.00;;;;;;5046638;28;20112;-75
2021/08/13 07:06:05;;;;;;;2.88;2.20;;;22.20;66.50;;;;;;5048545;28;20434;-75
2021/08/13 07:08:31;;;;;;;3.20;2.50;;;22.20;66.30;;;;;;5047829;28;20035;-76
2021/08/13 07:10:56;;;;;;;5.10;3.10;;;22.30;66.30;;;;;;5049043;28;20025;-75
2021/08/13 07:13:22;;;;;;;4.78;3.40;;;22.40;66.20;;;;;;5044791;28;20028;-75
2021/08/13 07:15:47;;;;;;;5.00;2.58;;;22.50;66.20;;;;;;5046972;28;20036;-76
2021/08/13 07:18:13;;;;;;;5.57;3.50;;;22.90;65.70;;;;;;5048466;28;20055;-77
2021/08/13 07:20:38;;;;;;;5.57;2.92;;;23.60;64.20;;;;;;5048493;28;20082;-77
2021/08/13 07:23:04;;;;;;;7.00;3.20;;;24.30;62.50;;;;;;5046338;28;20530;-77
2021/08/13 07:25:29;;;;;;;4.38;3.25;;;24.20;61.90;;;;;;5047759;28;20017;-76
2021/08/13 07:27:55;;;;;;;3.72;3.03;;;24.10;62.20;;;;;;5048615;28;20437;-75
2021/08/13 07:30:21;;;;;;;3.85;3.03;;;23.80;62.70;;;;;;5049926;28;20539;-76
2021/08/13 07:32:46;;;;;;;5.20;3.33;;;23.60;63.40;;;;;;5049419;28;20029;-78
2021/08/13 07:35:13;;;;;;;3.83;3.15;;;23.30;64.00;;;;;;5048693;28;20037;-76
2021/08/13 07:37:39;;;;;;;4.70;3.35;;;23.20;64.50;;;;;;5045347;28;20422;-76
2021/08/13 07:40:06;;;;;;;3.80;2.42;;;23.50;64.20;;;;;;5056156;28;20116;-74
2021/08/13 07:42:33;;;;;;;3.55;2.53;;;23.90;63.30;;;;;;5048639;28;20035;-76
2021/08/13 07:44:59;;;;;;;5.85;3.33;;;24.20;62.60;;;;;;5048032;28;20052;-76
2021/08/13 07:47:25;;;;;;;5.13;3.30;;;24.50;62.20;;;;;;5032821;28;20036;-75
2021/08/13 07:49:51;;;;;;;4.60;3.58;;;25.00;61.30;;;;;;5041908;28;20104;-75
2021/08/13 07:52:17;;;;;;;5.32;3.58;;;25.30;60.60;;;;;;5047041;28;20033;-75
2021/08/13 07:54:42;;;;;;;4.95;3.33;;;25.90;59.80;;;;;;5042665;28;20036;-77
2021/08/13 07:57:08;;;;;;;5.80;3.83;;;26.30;58.90;;;;;;5043960;28;20048;-76
2021/08/13 07:59:35;;;;;;;6.68;4.15;;;26.70;57.90;;;;;;5045249;28;20029;-77
2021/08/13 08:02:01;;;;;;;5.00;3.78;;;26.40;57.60;;;;;;5047361;28;20044;-75
2021/08/13 08:04:27;;;;;;;6.45;4.25;;;25.70;58.80;;;;;;5043946;28;20029;-75
2021/08/13 08:06:56;;;;;;;4.47;3.03;;;25.20;59.70;;;;;;5048922;28;20029;-76
2021/08/13 08:09:23;;;;;;;7.07;4.50;;;24.60;61.10;;;;;;5045486;28;20025;-75
2021/08/13 08:11:49;;;;;;;6.15;4.07;;;24.50;61.80;;;;;;5045847;28;20080;-76
2021/08/13 08:14:15;;;;;;;6.22;3.80;;;24.50;62.20;;;;;;5046673;28;20041;-77
2021/08/13 08:16:40;;;;;;;6.47;4.22;;;24.50;62.50;;;;;;5042277;28;20021;-76
2021/08/13 08:19:09;;;;;;;4.82;3.45;;;24.70;62.60;;;;;;5044842;28;20443;-74
2021/08/13 08:21:34;;;;;;;5.70;3.92;;;24.80;62.40;;;;;;5044730;28;20080;-75
2021/08/13 08:24:00;;;;;;;7.10;4.00;;;24.80;62.00;;;;;;5046495;28;20031;-76
2021/08/13 08:26:25;;;;;;;4.55;2.78;;;24.80;62.10;;;;;;5042832;28;20028;-77
2021/08/13 08:28:52;;;;;;;3.88;2.60;;;24.80;62.20;;;;;;5047663;28;20086;-75
2021/08/13 08:31:17;;;;;;;4.63;3.45;;;24.80;62.20;;;;;;5049497;28;20052;-75
2021/08/13 08:33:43;;;;;;;4.78;3.60;;;24.80;62.10;;;;;;5046879;28;20044;-76
2021/08/13 08:36:09;;;;;;;4.60;3.42;;;24.70;62.10;;;;;;5046372;28;20032;-76
2021/08/13 08:38:35;;;;;;;5.43;3.83;;;24.60;62.30;;;;;;5047862;28;20395;-76
2021/08/13 08:41:05;;;;;;;6.90;3.42;;;24.50;62.50;;;;;;5038001;28;20025;-77
2021/08/13 08:43:31;;;;;;;5.40;3.65;;;24.60;62.70;;;;;;5049933;28;20017;-75
2021/08/13 08:45:58;;;;;;;5.18;3.35;;;24.60;62.50;;;;;;5044618;28;20036;-77
2021/08/13 08:48:24;;;;;;;5.05;2.90;;;24.70;62.40;;;;;;5046833;28;20757;-77
2021/08/13 08:50:50;;;;;;;4.05;2.90;;;24.80;62.10;;;;;;5047878;28;20471;-77
2021/08/13 08:53:23;;;;;;;3.95;2.95;;;24.80;61.90;;;;;;5045730;28;20037;-76
2021/08/13 08:55:50;;;;;;;4.05;2.33;;;24.80;61.90;;;;;;5045287;28;20041;-77
2021/08/13 08:58:17;;;;;;;2.35;1.85;;;25.00;61.90;;;;;;5045519;28;20142;-78
2021/08/13 09:00:44;;;;;;;4.40;2.60;;;25.10;61.70;;;;;;5045925;28;20029;-77
2021/08/13 09:03:11;;;;;;;5.38;3.08;;;25.10;60.80;;;;;;5046788;28;20025;-77
2021/08/13 09:05:37;;;;;;;3.85;2.60;;;24.90;60.20;;;;;;5045524;28;20029;-77
2021/08/13 09:08:03;;;;;;;3.10;2.58;;;24.80;60.50;;;;;;5045280;28;20036;-75
2021/08/13 09:10:32;;;;;;;3.22;2.30;;;24.80;60.60;;;;;;5047514;28;20021;-76
2021/08/13 09:13:03;;;;;;;4.00;2.47;;;24.80;60.80;;;;;;5047760;28;20025;-77
2021/08/13 09:15:30;;;;;;;4.15;2.88;;;24.80;60.70;;;;;;5046148;28;20553;-77
2021/08/13 09:18:12;;;;;;;4.93;2.85;;;24.80;60.80;;;;;;5044940;28;20034;-78
2021/08/13 09:20:40;;;;;;;4.78;2.85;;;24.90;61.00;;;;;;5046505;28;20047;-78
2021/08/13 09:23:06;;;;;;;5.13;3.00;;;24.80;60.90;;;;;;5045357;28;20433;-76
2021/08/13 09:25:32;;;;;;;5.70;3.53;;;24.70;60.80;;;;;;5045727;28;20021;-80
2021/08/13 09:27:58;;;;;;;5.28;2.65;;;24.70;60.90;;;;;;5046405;28;20028;-79
2021/08/13 09:30:23;;;;;;;4.00;2.90;;;24.70;61.10;;;;;;5045998;28;20108;-79
2021/08/13 09:33:05;;;;;;;3.60;2.70;;;24.80;61.00;;;;;;5040668;28;20033;-79
2021/08/13 09:35:37;;;;;;;4.40;2.92;;;25.00;61.00;;;;;;5042239;28;20039;-77
2021/08/13 09:38:10;;;;;;;3.42;2.50;;;25.10;60.60;;;;;;5043610;28;20016;-77
2021/08/13 09:40:38;;;;;;;2.65;2.38;;;25.20;60.40;;;;;;5047834;28;20029;-78
2021/08/13 09:43:03;;;;;;;5.55;3.80;;;25.10;60.30;;;;;;5049675;28;20542;-78
2021/08/13 09:45:29;;;;;;;3.72;2.50;;;25.10;59.70;;;;;;5047950;28;20037;-78
2021/08/13 09:47:56;;;;;;;4.57;3.08;;;25.10;60.00;;;;;;5045090;28;20568;-77
2021/08/13 09:50:40;;;;;;;3.92;2.80;;;25.10;59.90;;;;;;5047170;28;20029;-77
2021/08/13 09:53:13;;;;;;;2.20;1.95;;;25.00;60.00;;;;;;5035458;28;20032;-76
2021/08/13 09:55:43;;;;;;;2.85;2.10;;;25.00;60.10;;;;;;5044877;28;20037;-77
2021/08/13 09:58:10;;;;;;;3.55;2.30;;;25.10;60.10;;;;;;5041173;28;20033;-77
2021/08/13 10:00:46;;;;;;;4.40;2.97;;;25.10;60.00;;;;;;5041441;28;20029;-77
2021/08/13 10:03:13;;;;;;;3.75;2.58;;;25.00;59.20;;;;;;5036658;28;20033;-76
2021/08/13 10:05:39;;;;;;;3.75;2.83;;;25.10;58.90;;;;;;5044194;28;20021;-76
2021/08/13 10:08:05;;;;;;;4.38;2.47;;;24.90;58.00;;;;;;5041674;28;20504;-76
2021/08/13 10:10:38;;;;;;;3.85;2.45;;;24.80;58.00;;;;;;5044518;28;20028;-78
2021/08/13 10:13:06;;;;;;;4.15;2.70;;;24.80;58.10;;;;;;5040368;28;20029;-78
2021/08/13 10:15:43;;;;;;;4.25;2.85;;;25.00;57.90;;;;;;5039309;28;20096;-79
2021/08/13 10:18:18;;;;;;;4.75;2.50;;;25.00;57.40;;;;;;5046621;28;20111;-79
2021/08/13 10:20:47;;;;;;;3.58;2.50;;;25.00;57.10;;;;;;5045987;28;20028;-79
2021/08/13 10:23:13;;;;;;;5.95;3.47;;;25.10;57.00;;;;;;5046238;28;20043;-79
2021/08/13 10:25:39;;;;;;;5.45;3.10;;;25.10;56.10;;;;;;5047322;28;20048;-81
2021/08/13 10:28:05;;;;;;;5.03;2.75;;;25.00;55.00;;;;;;5047335;28;20080;-82
2021/08/13 10:30:31;;;;;;;3.63;2.67;;;25.00;55.60;;;;;;5048385;28;20025;-81
2021/08/13 10:32:59;;;;;;;4.22;2.45;;;25.10;55.60;;;;;;5042193;28;20025;-81
2021/08/13 10:35:49;;;;;;;5.65;2.50;;;25.10;55.10;;;;;;5045493;28;20041;-82
2021/08/13 10:38:16;;;;;;;4.57;2.10;;;25.10;55.00;;;;;;5025439;28;20052;-81
2021/08/13 10:40:42;;;;;;;5.45;3.80;;;25.30;55.20;;;;;;5039191;28;20116;-79
2021/08/13 10:43:10;;;;;;;4.82;2.90;;;25.20;54.20;;;;;;5044666;28;20017;-78
2021/08/13 10:45:37;;;;;;;4.60;2.88;;;25.00;54.30;;;;;;5047721;28;20053;-77
2021/08/13 10:48:21;;;;;;;4.28;2.70;;;25.10;54.80;;;;;;5043492;28;20017;-78
2021/08/13 10:50:48;;;;;;;5.57;2.90;;;25.20;54.80;;;;;;5046980;28;20503;-79
2021/08/13 10:53:43;;;;;;;5.05;2.83;;;25.20;54.50;;;;;;5043625;28;20017;-78
2021/08/13 10:56:09;;;;;;;6.07;3.40;;;25.20;54.90;;;;;;5029514;28;20049;-79
2021/08/13 10:58:39;;;;;;;4.43;2.75;;;25.40;54.80;;;;;;5046184;28;20134;-77
2021/08/13 11:01:09;;;;;;;5.95;3.05;;;25.60;54.60;;;;;;5039895;28;20029;-77
2021/08/13 11:03:39;;;;;;;4.75;2.72;;;25.80;54.20;;;;;;5039881;28;20033;-78
2021/08/13 11:06:05;;;;;;;5.25;2.47;;;25.80;53.70;;;;;;5031656;28;20505;-77
2021/08/13 11:08:39;;;;;;;3.70;2.03;;;25.90;54.00;;;;;;5041467;28;20454;-78
2021/08/13 11:11:09;;;;;;;6.82;3.15;;;25.90;54.10;;;;;;5042785;28;20115;-78
2021/08/13 11:13:40;;;;;;;4.82;2.53;;;25.80;53.90;;;;;;5041796;28;20025;-77
2021/08/13 11:16:24;;;;;;;5.20;2.60;;;25.80;54.30;;;;;;5043791;28;20037;-78
2021/08/13 11:19:10;;;;;;;3.85;2.17;;;25.70;54.10;;;;;;5047932;28;20029;-77
2021/08/13 11:21:38;;;;;;;4.05;2.03;;;25.80;54.00;;;;;;5046232;28;20014;-77
2021/08/13 11:24:07;;;;;;;3.25;2.17;;;25.90;53.00;;;;;;5046295;28;20017;-78
2021/08/13 11:26:48;;;;;;;4.70;2.22;;;25.90;51.60;;;;;;5042816;28;21244;-78
2021/08/13 11:29:35;;;;;;;3.65;1.90;;;26.00;51.20;;;;;;5046188;28;20025;-79
2021/08/13 11:32:14;;;;;;;3.85;2.17;;;26.00;51.00;;;;;;5046428;28;20595;-78
2021/08/13 11:34:47;;;;;;;4.20;2.03;;;26.00;51.00;;;;;;5045470;28;20436;-77
2021/08/13 11:37:31;;;;;;;3.85;2.10;;;26.10;51.10;;;;;;5046180;28;20569;-77
2021/08/13 11:40:12;;;;;;;4.25;2.20;;;26.00;51.00;;;;;;5047312;28;20487;-77
2021/08/13 11:42:45;;;;;;;2.88;1.70;;;25.90;51.30;;;;;;5044658;28;20033;-77
2021/08/13 11:45:11;;;;;;;2.50;1.60;;;26.00;51.60;;;;;;5044519;28;20031;-77
2021/08/13 11:47:53;;;;;;;3.13;1.95;;;26.00;51.50;;;;;;5046932;28;20467;-77
2021/08/13 11:50:20;;;;;;;3.00;1.70;;;26.00;51.60;;;;;;5043437;28;20070;-77
2021/08/13 11:52:46;;;;;;;4.03;1.80;;;26.00;51.70;;;;;;5045325;28;20036;-77
2021/08/13 11:55:23;;;;;;;2.53;1.35;;;26.00;51.70;;;;;;5041892;28;20052;-76
2021/08/13 11:57:50;;;;;;;2.55;1.48;;;26.10;52.00;;;;;;5045324;28;20033;-76
2021/08/13 12:00:26;;;;;;;2.90;1.50;;;26.10;52.40;;;;;;5044074;28;20364;-76
2021/08/13 12:03:06;;;;;;;2.25;1.40;;;26.20;51.40;;;;;;5047162;28;20360;-78
2021/08/13 12:05:34;;;;;;;1.85;1.20;;;26.30;51.00;;;;;;5048726;28;20031;-78
2021/08/13 12:08:13;;;;;;;2.35;1.40;;;26.40;50.50;;;;;;5064633;28;20078;-77
2021/08/13 12:10:45;;;;;;;3.45;1.83;;;26.40;49.50;;;;;;5047069;28;20032;-78
2021/08/13 12:13:10;;;;;;;2.53;1.55;;;26.30;48.50;;;;;;5051205;28;20472;-77
2021/08/13 12:15:39;;;;;;;2.78;1.52;;;26.30;48.60;;;;;;5050575;28;20036;-78
2021/08/13 12:18:06;;;;;;;2.40;1.40;;;26.30;48.80;;;;;;5043947;28;20025;-76
2021/08/13 12:20:34;;;;;;;3.63;1.80;;;26.50;48.90;;;;;;5048988;28;20017;-77
2021/08/13 12:23:05;;;;;;;2.65;1.50;;;26.60;48.80;;;;;;5049889;28;20029;-76
2021/08/13 12:25:36;;;;;;;2.67;1.50;;;26.70;48.90;;;;;;5044149;28;20038;-76
2021/08/13 12:28:02;;;;;;;2.70;1.60;;;26.90;48.90;;;;;;5046528;28;20109;-76
2021/08/13 12:30:28;;;;;;;2.65;1.40;;;26.80;48.40;;;;;;5049341;28;20059;-76
2021/08/13 12:32:53;;;;;;;2.47;1.08;;;26.70;48.00;;;;;;5046245;28;20071;-75
2021/08/13 12:35:21;;;;;;;3.63;1.48;;;26.70;47.70;;;;;;5052418;28;20063;-76
2021/08/13 12:37:47;;;;;;;1.75;1.17;;;26.60;45.80;;;;;;5044337;28;20013;-76
2021/08/13 12:40:15;;;;;;;1.98;1.10;;;26.40;45.40;;;;;;5051009;28;20021;-76
2021/08/13 12:42:44;;;;;;;2.28;1.10;;;26.30;45.10;;;;;;5048504;28;20013;-75
2021/08/13 12:45:11;;;;;;;2.10;1.25;;;26.20;45.50;;;;;;5047623;28;20025;-77
2021/08/13 12:47:39;;;;;;;2.13;1.10;;;26.20;45.90;;;;;;5050348;28;20017;-76
2021/08/13 12:50:12;;;;;;;2.58;1.10;;;26.40;45.90;;;;;;5044587;28;20430;-76